sensor_id;sensor_type;location;lat;lon;timestamp;temperature;humidity
42261;DHT22;27926;48.062;7.474;2023-06-24T04:50:35;17.90;99.90
42261;DHT22;27926;48.062;7.474;2023-06-24T04:53:01;19.10;99.90
42261;DHT22;27926;48.062;7.474;2023-06-24T04:55:26;20.00;99.90
42261;DHT22;27926;48.062;7.474;2023-06-24T04:57:50;20.70;99.90
42261;DHT22;27926;48.062;7.474;2023-06-24T05:00:15;21.50;99.90
42261;DHT22;27926;48.062;7.474;2023-06-24T05:02:40;22.30;99.90
42261;DHT22;27926;48.062;7.474;2023-06-24T05:05:05;23.00;99.90
42261;DHT22;27926;48.062;7.474;2023-06-24T05:07:29;23.80;99.90
42261;DHT22;27926;48.062;7.474;2023-06-24T05:09:54;24.50;99.90
42261;DHT22;27926;48.062;7.474;2023-06-24T05:12:18;25.20;99.90
42261;DHT22;27926;48.062;7.474;2023-06-24T05:14:43;25.70;99.40
42261;DHT22;27926;48.062;7.474;2023-06-24T05:17:08;26.30;98.50
42261;DHT22;27926;48.062;7.474;2023-06-24T05:19:33;26.90;97.60
42261;DHT22;27926;48.062;7.474;2023-06-24T05:21:58;27.40;96.00
42261;DHT22;27926;48.062;7.474;2023-06-24T05:24:23;27.70;95.50
42261;DHT22;27926;48.062;7.474;2023-06-24T05:26:50;28.00;94.50
42261;DHT22;27926;48.062;7.474;2023-06-24T05:29:17;28.20;93.30
42261;DHT22;27926;48.062;7.474;2023-06-24T05:31:42;28.20;93.50
42261;DHT22;27926;48.062;7.474;2023-06-24T05:34:07;28.40;93.00
42261;DHT22;27926;48.062;7.474;2023-06-24T05:36:32;28.40;93.00
42261;DHT22;27926;48.062;7.474;2023-06-24T05:38:57;28.40;92.50
42261;DHT22;27926;48.062;7.474;2023-06-24T05:41:21;28.20;92.30
42261;DHT22;27926;48.062;7.474;2023-06-24T05:43:46;28.10;91.90
42261;DHT22;27926;48.062;7.474;2023-06-24T05:46:10;27.60;92.60
42261;DHT22;27926;48.062;7.474;2023-06-24T05:48:36;27.40;92.60
42261;DHT22;27926;48.062;7.474;2023-06-24T05:51:00;27.10;92.90
42261;DHT22;27926;48.062;7.474;2023-06-24T05:53:25;26.90;92.90
42261;DHT22;27926;48.062;7.474;2023-06-24T05:55:49;27.00;93.00
42261;DHT22;27926;48.062;7.474;2023-06-24T05:58:14;26.80;93.20
42261;DHT22;27926;48.062;7.474;2023-06-24T06:00:39;26.40;93.30
42261;DHT22;27926;48.062;7.474;2023-06-24T06:03:03;26.10;94.10
42261;DHT22;27926;48.062;7.474;2023-06-24T06:05:28;25.90;94.50
42261;DHT22;27926;48.062;7.474;2023-06-24T06:07:56;25.80;94.90
42261;DHT22;27926;48.062;7.474;2023-06-24T06:10:20;25.90;94.20
42261;DHT22;27926;48.062;7.474;2023-06-24T06:12:45;26.00;94.90
42261;DHT22;27926;48.062;7.474;2023-06-24T06:15:10;26.60;94.70
42261;DHT22;27926;48.062;7.474;2023-06-24T06:17:35;27.20;93.00
42261;DHT22;27926;48.062;7.474;2023-06-24T06:20:03;27.50;93.30
42261;DHT22;27926;48.062;7.474;2023-06-24T06:22:28;28.00;92.90
42261;DHT22;27926;48.062;7.474;2023-06-24T06:24:52;28.20;92.40
42261;DHT22;27926;48.062;7.474;2023-06-24T06:27:18;28.50;92.20
42261;DHT22;27926;48.062;7.474;2023-06-24T06:29:43;28.90;91.90
42261;DHT22;27926;48.062;7.474;2023-06-24T06:32:08;28.90;91.80
42261;DHT22;27926;48.062;7.474;2023-06-24T06:34:32;28.60;92.00
42261;DHT22;27926;48.062;7.474;2023-06-24T06:36:57;27.50;92.50
42261;DHT22;27926;48.062;7.474;2023-06-24T06:39:22;26.90;93.20
42261;DHT22;27926;48.062;7.474;2023-06-24T06:41:46;26.70;93.80
42261;DHT22;27926;48.062;7.474;2023-06-24T06:44:11;26.30;93.80
42261;DHT22;27926;48.062;7.474;2023-06-24T06:46:35;25.90;94.40
42261;DHT22;27926;48.062;7.474;2023-06-24T06:49:00;25.80;94.30
42261;DHT22;27926;48.062;7.474;2023-06-24T06:51:24;25.70;95.20
42261;DHT22;27926;48.062;7.474;2023-06-24T06:53:50;25.70;95.30
42261;DHT22;27926;48.062;7.474;2023-06-24T06:56:28;25.80;95.60
42261;DHT22;27926;48.062;7.474;2023-06-24T06:58:52;26.00;94.60
42261;DHT22;27926;48.062;7.474;2023-06-24T07:01:18;25.80;94.20
42261;DHT22;27926;48.062;7.474;2023-06-24T07:03:42;25.80;94.20
42261;DHT22;27926;48.062;7.474;2023-06-24T07:06:07;25.30;94.70
42261;DHT22;27926;48.062;7.474;2023-06-24T07:08:32;25.10;95.20
42261;DHT22;27926;48.062;7.474;2023-06-24T07:10:56;25.10;95.60
42261;DHT22;27926;48.062;7.474;2023-06-24T07:13:21;25.10;94.90
42261;DHT22;27926;48.062;7.474;2023-06-24T07:15:45;25.30;95.40
42261;DHT22;27926;48.062;7.474;2023-06-24T07:18:10;25.20;95.20
42261;DHT22;27926;48.062;7.474;2023-06-24T07:20:35;25.00;95.40
42261;DHT22;27926;48.062;7.474;2023-06-24T07:22:59;25.10;95.80
42261;DHT22;27926;48.062;7.474;2023-06-24T07:25:24;25.30;95.80
42261;DHT22;27926;48.062;7.474;2023-06-24T07:27:50;25.10;95.80
42261;DHT22;27926;48.062;7.474;2023-06-24T07:30:14;25.30;96.00
42261;DHT22;27926;48.062;7.474;2023-06-24T07:32:39;25.40;96.20
42261;DHT22;27926;48.062;7.474;2023-06-24T07:35:04;25.40;96.10
42261;DHT22;27926;48.062;7.474;2023-06-24T07:37:28;25.30;96.70
42261;DHT22;27926;48.062;7.474;2023-06-24T07:39:53;25.40;96.30
42261;DHT22;27926;48.062;7.474;2023-06-24T07:42:17;25.40;96.50
42261;DHT22;27926;48.062;7.474;2023-06-24T07:44:43;25.30;96.20
42261;DHT22;27926;48.062;7.474;2023-06-24T07:47:07;25.20;96.50
42261;DHT22;27926;48.062;7.474;2023-06-24T07:49:32;25.30;96.60
42261;DHT22;27926;48.062;7.474;2023-06-24T07:51:57;25.40;96.30
42261;DHT22;27926;48.062;7.474;2023-06-24T07:54:21;25.20;95.70
42261;DHT22;27926;48.062;7.474;2023-06-24T07:56:49;25.10;96.00
42261;DHT22;27926;48.062;7.474;2023-06-24T07:59:13;25.10;95.70
42261;DHT22;27926;48.062;7.474;2023-06-24T08:01:38;25.00;95.60
42261;DHT22;27926;48.062;7.474;2023-06-24T08:04:02;24.90;95.90
42261;DHT22;27926;48.062;7.474;2023-06-24T08:06:27;24.60;96.10
42261;DHT22;27926;48.062;7.474;2023-06-24T08:08:52;24.70;95.60
42261;DHT22;27926;48.062;7.474;2023-06-24T08:11:16;24.60;95.80
42261;DHT22;27926;48.062;7.474;2023-06-24T08:13:41;24.60;95.80
42261;DHT22;27926;48.062;7.474;2023-06-24T08:16:06;24.60;96.00
42261;DHT22;27926;48.062;7.474;2023-06-24T08:18:30;24.80;96.10
42261;DHT22;27926;48.062;7.474;2023-06-24T08:20:56;24.70;95.30
42261;DHT22;27926;48.062;7.474;2023-06-24T08:23:20;24.60;95.70
42261;DHT22;27926;48.062;7.474;2023-06-24T08:25:45;24.60;95.90
42261;DHT22;27926;48.062;7.474;2023-06-24T08:28:10;24.70;95.80
42261;DHT22;27926;48.062;7.474;2023-06-24T08:30:35;24.70;95.50
42261;DHT22;27926;48.062;7.474;2023-06-24T08:32:59;24.70;96.00
42261;DHT22;27926;48.062;7.474;2023-06-24T08:35:24;25.00;95.70
42261;DHT22;27926;48.062;7.474;2023-06-24T08:37:48;25.10;95.30
42261;DHT22;27926;48.062;7.474;2023-06-24T08:40:13;25.10;95.80
42261;DHT22;27926;48.062;7.474;2023-06-24T08:42:37;25.40;95.90
42261;DHT22;27926;48.062;7.474;2023-06-24T08:45:02;25.40;95.40
42261;DHT22;27926;48.062;7.474;2023-06-24T08:47:28;25.20;95.90
42261;DHT22;27926;48.062;7.474;2023-06-24T08:50:15;25.20;95.60
42261;DHT22;27926;48.062;7.474;2023-06-24T08:52:48;25.30;95.10
42261;DHT22;27926;48.062;7.474;2023-06-24T08:55:16;25.40;95.60
42261;DHT22;27926;48.062;7.474;2023-06-24T08:57:41;25.40;95.60
42261;DHT22;27926;48.062;7.474;2023-06-24T09:00:07;25.50;96.10
42261;DHT22;27926;48.062;7.474;2023-06-24T09:02:35;25.70;94.60
42261;DHT22;27926;48.062;7.474;2023-06-24T09:05:02;25.50;95.10
42261;DHT22;27926;48.062;7.474;2023-06-24T09:07:28;25.10;95.60
42261;DHT22;27926;48.062;7.474;2023-06-24T09:09:52;25.40;96.20
42261;DHT22;27926;48.062;7.474;2023-06-24T09:12:17;25.40;95.90
42261;DHT22;27926;48.062;7.474;2023-06-24T09:14:48;25.40;96.30
42261;DHT22;27926;48.062;7.474;2023-06-24T09:17:12;25.70;95.10
42261;DHT22;27926;48.062;7.474;2023-06-24T09:19:37;25.70;94.10
42261;DHT22;27926;48.062;7.474;2023-06-24T09:22:03;25.70;95.20
42261;DHT22;27926;48.062;7.474;2023-06-24T09:24:35;25.80;95.50
42261;DHT22;27926;48.062;7.474;2023-06-24T09:27:00;26.00;95.70
42261;DHT22;27926;48.062;7.474;2023-06-24T09:29:32;26.00;94.80
42261;DHT22;27926;48.062;7.474;2023-06-24T09:31:57;26.10;95.10
42261;DHT22;27926;48.062;7.474;2023-06-24T09:34:24;26.20;94.90
42261;DHT22;27926;48.062;7.474;2023-06-24T09:36:56;26.10;94.70
42261;DHT22;27926;48.062;7.474;2023-06-24T09:39:21;26.10;95.00
42261;DHT22;27926;48.062;7.474;2023-06-24T09:41:49;26.00;93.50
42261;DHT22;27926;48.062;7.474;2023-06-24T09:44:17;26.20;93.60
42261;DHT22;27926;48.062;7.474;2023-06-24T09:46:45;26.40;93.00
42261;DHT22;27926;48.062;7.474;2023-06-24T09:49:09;26.40;93.30
42261;DHT22;27926;48.062;7.474;2023-06-24T09:51:38;26.80;93.40
42261;DHT22;27926;48.062;7.474;2023-06-24T09:54:06;26.50;93.20
42261;DHT22;27926;48.062;7.474;2023-06-24T09:56:32;26.50;91.90
42261;DHT22;27926;48.062;7.474;2023-06-24T09:58:58;26.50;92.40
42261;DHT22;27926;48.062;7.474;2023-06-24T10:01:23;26.50;92.40
42261;DHT22;27926;48.062;7.474;2023-06-24T10:03:48;26.60;92.60
42261;DHT22;27926;48.062;7.474;2023-06-24T10:06:13;26.50;91.30
42261;DHT22;27926;48.062;7.474;2023-06-24T10:08:38;26.70;92.10
42261;DHT22;27926;48.062;7.474;2023-06-24T10:11:02;26.90;91.70
42261;DHT22;27926;48.062;7.474;2023-06-24T10:13:27;26.70;91.10
42261;DHT22;27926;48.062;7.474;2023-06-24T10:15:52;26.70;91.40
42261;DHT22;27926;48.062;7.474;2023-06-24T10:18:38;26.60;91.00
42261;DHT22;27926;48.062;7.474;2023-06-24T10:21:05;26.70;90.70
42261;DHT22;27926;48.062;7.474;2023-06-24T10:23:32;26.70;90.50
42261;DHT22;27926;48.062;7.474;2023-06-24T10:25:58;26.70;91.00
42261;DHT22;27926;48.062;7.474;2023-06-24T10:28:23;26.80;90.90
42261;DHT22;27926;48.062;7.474;2023-06-24T10:30:57;27.00;90.60
42261;DHT22;27926;48.062;7.474;2023-06-24T10:33:24;27.10;87.50
42261;DHT22;27926;48.062;7.474;2023-06-24T10:35:48;27.10;88.80
42261;DHT22;27926;48.062;7.474;2023-06-24T10:38:15;27.30;87.80
42261;DHT22;27926;48.062;7.474;2023-06-24T10:40:43;27.20;87.20
42261;DHT22;27926;48.062;7.474;2023-06-24T10:45:57;27.40;87.60
42261;DHT22;27926;48.062;7.474;2023-06-24T10:48:23;27.50;85.80
42261;DHT22;27926;48.062;7.474;2023-06-24T10:50:48;27.30;86.50
42261;DHT22;27926;48.062;7.474;2023-06-24T10:53:16;27.40;85.60
42261;DHT22;27926;48.062;7.474;2023-06-24T10:55:43;27.50;85.30
42261;DHT22;27926;48.062;7.474;2023-06-24T10:58:10;27.50;85.80
42261;DHT22;27926;48.062;7.474;2023-06-24T11:00:37;27.60;84.60
42261;DHT22;27926;48.062;7.474;2023-06-24T11:03:11;27.50;85.50
42261;DHT22;27926;48.062;7.474;2023-06-24T11:05:44;27.50;84.50
42261;DHT22;27926;48.062;7.474;2023-06-24T11:08:09;27.50;85.30
42261;DHT22;27926;48.062;7.474;2023-06-24T11:10:45;27.70;84.60
42261;DHT22;27926;48.062;7.474;2023-06-24T11:13:09;27.60;84.50
42261;DHT22;27926;48.062;7.474;2023-06-24T11:15:34;27.60;84.00
42261;DHT22;27926;48.062;7.474;2023-06-24T11:18:01;27.50;82.70
42261;DHT22;27926;48.062;7.474;2023-06-24T11:20:26;27.40;82.80
42261;DHT22;27926;48.062;7.474;2023-06-24T11:22:50;27.40;84.50
42261;DHT22;27926;48.062;7.474;2023-06-24T11:25:17;27.50;83.60
42261;DHT22;27926;48.062;7.474;2023-06-24T11:27:42;27.60;84.60
42261;DHT22;27926;48.062;7.474;2023-06-24T11:30:07;27.60;83.00
42261;DHT22;27926;48.062;7.474;2023-06-24T11:32:42;27.60;83.60
42261;DHT22;27926;48.062;7.474;2023-06-24T11:35:12;27.50;84.40
42261;DHT22;27926;48.062;7.474;2023-06-24T11:37:42;27.50;85.80
42261;DHT22;27926;48.062;7.474;2023-06-24T11:40:08;27.60;85.50
42261;DHT22;27926;48.062;7.474;2023-06-24T11:42:37;27.60;83.40
42261;DHT22;27926;48.062;7.474;2023-06-24T11:45:04;27.50;84.20
42261;DHT22;27926;48.062;7.474;2023-06-24T11:47:39;27.50;84.30
42261;DHT22;27926;48.062;7.474;2023-06-24T11:50:05;27.70;85.00
42261;DHT22;27926;48.062;7.474;2023-06-24T11:55:00;27.80;83.50
42261;DHT22;27926;48.062;7.474;2023-06-24T11:57:58;27.90;85.70
42261;DHT22;27926;48.062;7.474;2023-06-24T12:02:59;28.10;84.40
42261;DHT22;27926;48.062;7.474;2023-06-24T12:05:29;27.90;83.10
42261;DHT22;27926;48.062;7.474;2023-06-24T12:07:56;27.80;83.00
42261;DHT22;27926;48.062;7.474;2023-06-24T12:10:22;27.90;85.20
42261;DHT22;27926;48.062;7.474;2023-06-24T12:12:47;27.90;84.50
42261;DHT22;27926;48.062;7.474;2023-06-24T12:15:12;28.10;85.30
42261;DHT22;27926;48.062;7.474;2023-06-24T12:17:36;28.10;83.60
42261;DHT22;27926;48.062;7.474;2023-06-24T12:20:01;28.10;84.40
42261;DHT22;27926;48.062;7.474;2023-06-24T12:22:29;28.20;84.60
42261;DHT22;27926;48.062;7.474;2023-06-24T12:24:53;28.20;83.90
42261;DHT22;27926;48.062;7.474;2023-06-24T12:27:18;28.30;84.30
42261;DHT22;27926;48.062;7.474;2023-06-24T12:29:42;28.30;83.40
42261;DHT22;27926;48.062;7.474;2023-06-24T12:32:07;28.20;84.30
42261;DHT22;27926;48.062;7.474;2023-06-24T12:34:32;28.20;83.70
42261;DHT22;27926;48.062;7.474;2023-06-24T12:36:56;28.30;83.70
42261;DHT22;27926;48.062;7.474;2023-06-24T12:39:21;28.20;83.60
42261;DHT22;27926;48.062;7.474;2023-06-24T12:41:45;28.20;82.60
42261;DHT22;27926;48.062;7.474;2023-06-24T12:44:10;28.30;82.40
42261;DHT22;27926;48.062;7.474;2023-06-24T12:46:35;28.20;84.00
42261;DHT22;27926;48.062;7.474;2023-06-24T12:48:59;28.30;83.60
42261;DHT22;27926;48.062;7.474;2023-06-24T12:51:24;28.40;83.60
42261;DHT22;27926;48.062;7.474;2023-06-24T12:53:48;28.30;83.20
42261;DHT22;27926;48.062;7.474;2023-06-24T12:56:13;28.30;84.90
42261;DHT22;27926;48.062;7.474;2023-06-24T12:58:38;28.40;84.10
42261;DHT22;27926;48.062;7.474;2023-06-24T13:01:02;28.60;84.40
42261;DHT22;27926;48.062;7.474;2023-06-24T13:03:27;28.60;83.40
42261;DHT22;27926;48.062;7.474;2023-06-24T13:05:52;28.60;83.20
42261;DHT22;27926;48.062;7.474;2023-06-24T13:08:16;28.50;82.70
42261;DHT22;27926;48.062;7.474;2023-06-24T13:10:41;28.50;83.40
42261;DHT22;27926;48.062;7.474;2023-06-24T13:13:06;28.60;82.80
42261;DHT22;27926;48.062;7.474;2023-06-24T13:15:30;28.60;84.00
42261;DHT22;27926;48.062;7.474;2023-06-24T13:17:55;28.60;83.50
42261;DHT22;27926;48.062;7.474;2023-06-24T13:20:20;28.60;84.70
42261;DHT22;27926;48.062;7.474;2023-06-24T13:22:45;28.70;83.30
42261;DHT22;27926;48.062;7.474;2023-06-24T13:25:09;28.70;83.50
42261;DHT22;27926;48.062;7.474;2023-06-24T13:27:34;28.70;83.50
42261;DHT22;27926;48.062;7.474;2023-06-24T13:29:58;28.70;83.20
42261;DHT22;27926;48.062;7.474;2023-06-24T13:32:23;28.90;83.20
42261;DHT22;27926;48.062;7.474;2023-06-24T13:34:47;28.80;83.70
42261;DHT22;27926;48.062;7.474;2023-06-24T13:37:12;28.90;83.70
42261;DHT22;27926;48.062;7.474;2023-06-24T13:39:37;28.80;81.80
42261;DHT22;27926;48.062;7.474;2023-06-24T13:42:02;28.70;82.60
42261;DHT22;27926;48.062;7.474;2023-06-24T13:44:26;28.60;82.20
42261;DHT22;27926;48.062;7.474;2023-06-24T13:46:51;28.80;83.40
42261;DHT22;27926;48.062;7.474;2023-06-24T13:49:17;28.80;83.60
42261;DHT22;27926;48.062;7.474;2023-06-24T13:51:42;28.80;82.40
42261;DHT22;27926;48.062;7.474;2023-06-24T13:54:07;28.70;83.70
42261;DHT22;27926;48.062;7.474;2023-06-24T13:56:31;28.80;84.10
42261;DHT22;27926;48.062;7.474;2023-06-24T13:58:56;29.00;83.80
42261;DHT22;27926;48.062;7.474;2023-06-24T14:01:22;29.00;81.00
42261;DHT22;27926;48.062;7.474;2023-06-24T14:03:47;28.70;82.10
42261;DHT22;27926;48.062;7.474;2023-06-24T14:06:14;28.70;82.20
42261;DHT22;27926;48.062;7.474;2023-06-24T14:08:42;28.70;83.20
42261;DHT22;27926;48.062;7.474;2023-06-24T14:11:07;28.70;82.50
42261;DHT22;27926;48.062;7.474;2023-06-24T14:13:35;28.80;82.60
42261;DHT22;27926;48.062;7.474;2023-06-24T14:16:00;28.90;82.90
42261;DHT22;27926;48.062;7.474;2023-06-24T14:18:25;28.80;83.10
42261;DHT22;27926;48.062;7.474;2023-06-24T14:20:50;28.70;82.60
42261;DHT22;27926;48.062;7.474;2023-06-24T14:23:14;28.70;82.70
42261;DHT22;27926;48.062;7.474;2023-06-24T14:25:39;28.80;82.70
42261;DHT22;27926;48.062;7.474;2023-06-24T14:28:04;28.80;82.80
42261;DHT22;27926;48.062;7.474;2023-06-24T14:30:32;28.90;82.30
42261;DHT22;27926;48.062;7.474;2023-06-24T14:32:58;28.80;81.90
42261;DHT22;27926;48.062;7.474;2023-06-24T14:35:22;28.80;82.00
42261;DHT22;27926;48.062;7.474;2023-06-24T14:37:47;28.80;83.30
42261;DHT22;27926;48.062;7.474;2023-06-24T14:40:11;28.80;81.70
42261;DHT22;27926;48.062;7.474;2023-06-24T14:42:36;28.80;81.70
42261;DHT22;27926;48.062;7.474;2023-06-24T14:45:02;28.80;81.60
42261;DHT22;27926;48.062;7.474;2023-06-24T14:47:27;28.80;82.00
42261;DHT22;27926;48.062;7.474;2023-06-24T14:49:51;28.90;83.00
42261;DHT22;27926;48.062;7.474;2023-06-24T14:52:16;29.10;82.60
42261;DHT22;27926;48.062;7.474;2023-06-24T14:54:41;29.10;81.90
42261;DHT22;27926;48.062;7.474;2023-06-24T14:57:05;29.10;81.70
42261;DHT22;27926;48.062;7.474;2023-06-24T14:59:30;29.20;82.00
42261;DHT22;27926;48.062;7.474;2023-06-24T15:01:54;29.20;82.00
42261;DHT22;27926;48.062;7.474;2023-06-24T15:04:19;29.00;81.80
42261;DHT22;27926;48.062;7.474;2023-06-24T15:06:44;29.00;81.30
42261;DHT22;27926;48.062;7.474;2023-06-24T15:09:10;29.00;81.50
42261;DHT22;27926;48.062;7.474;2023-06-24T15:11:34;29.00;81.10
42261;DHT22;27926;48.062;7.474;2023-06-24T15:13:59;29.10;81.10
42261;DHT22;27926;48.062;7.474;2023-06-24T15:16:23;29.00;80.80
42261;DHT22;27926;48.062;7.474;2023-06-24T15:18:48;29.20;81.60
42261;DHT22;27926;48.062;7.474;2023-06-24T15:21:14;29.30;80.60
42261;DHT22;27926;48.062;7.474;2023-06-24T15:23:39;29.20;81.50
42261;DHT22;27926;48.062;7.474;2023-06-24T15:26:03;29.20;81.30
42261;DHT22;27926;48.062;7.474;2023-06-24T15:28:28;29.10;81.10
42261;DHT22;27926;48.062;7.474;2023-06-24T15:30:53;28.90;81.30
42261;DHT22;27926;48.062;7.474;2023-06-24T15:33:18;29.00;80.90
42261;DHT22;27926;48.062;7.474;2023-06-24T15:35:42;28.90;80.40
42261;DHT22;27926;48.062;7.474;2023-06-24T15:38:07;28.90;81.10
42261;DHT22;27926;48.062;7.474;2023-06-24T15:40:32;28.90;82.30
42261;DHT22;27926;48.062;7.474;2023-06-24T15:42:56;29.00;82.30
42261;DHT22;27926;48.062;7.474;2023-06-24T15:45:21;29.00;80.30
42261;DHT22;27926;48.062;7.474;2023-06-24T15:47:45;28.90;80.80
42261;DHT22;27926;48.062;7.474;2023-06-24T15:50:10;29.10;82.50
42261;DHT22;27926;48.062;7.474;2023-06-24T15:52:34;29.10;82.50
42261;DHT22;27926;48.062;7.474;2023-06-24T15:54:59;29.10;81.60
42261;DHT22;27926;48.062;7.474;2023-06-24T15:57:24;29.10;81.50
42261;DHT22;27926;48.062;7.474;2023-06-24T15:59:48;29.00;81.30
42261;DHT22;27926;48.062;7.474;2023-06-24T16:02:13;29.00;83.00
42261;DHT22;27926;48.062;7.474;2023-06-24T16:04:37;29.00;81.40
42261;DHT22;27926;48.062;7.474;2023-06-24T16:07:02;29.00;81.90
42261;DHT22;27926;48.062;7.474;2023-06-24T16:09:28;28.90;82.80
42261;DHT22;27926;48.062;7.474;2023-06-24T16:11:53;29.00;83.70
42261;DHT22;27926;48.062;7.474;2023-06-24T16:14:17;29.00;80.80
42261;DHT22;27926;48.062;7.474;2023-06-24T16:16:42;28.90;81.50
42261;DHT22;27926;48.062;7.474;2023-06-24T16:19:06;28.80;80.50
42261;DHT22;27926;48.062;7.474;2023-06-24T16:21:31;28.80;80.90
42261;DHT22;27926;48.062;7.474;2023-06-24T16:23:57;28.80;81.40
42261;DHT22;27926;48.062;7.474;2023-06-24T16:26:21;28.70;81.40
42261;DHT22;27926;48.062;7.474;2023-06-24T16:28:46;28.70;81.20
42261;DHT22;27926;48.062;7.474;2023-06-24T16:31:11;28.70;82.10
42261;DHT22;27926;48.062;7.474;2023-06-24T16:33:36;28.80;81.60
42261;DHT22;27926;48.062;7.474;2023-06-24T16:36:00;28.80;80.90
42261;DHT22;27926;48.062;7.474;2023-06-24T16:38:25;28.70;80.90
42261;DHT22;27926;48.062;7.474;2023-06-24T16:40:49;28.70;81.00
42261;DHT22;27926;48.062;7.474;2023-06-24T16:43:14;28.70;80.80
42261;DHT22;27926;48.062;7.474;2023-06-24T16:45:39;28.60;80.80
42261;DHT22;27926;48.062;7.474;2023-06-24T16:48:04;28.60;81.20
42261;DHT22;27926;48.062;7.474;2023-06-24T16:50:28;28.50;80.90
42261;DHT22;27926;48.062;7.474;2023-06-24T16:52:53;28.50;80.40
42261;DHT22;27926;48.062;7.474;2023-06-24T16:55:17;28.50;81.40
42261;DHT22;27926;48.062;7.474;2023-06-24T16:57:42;28.60;81.30
42261;DHT22;27926;48.062;7.474;2023-06-24T17:00:07;28.60;80.20
42261;DHT22;27926;48.062;7.474;2023-06-24T17:02:32;28.50;79.70
42261;DHT22;27926;48.062;7.474;2023-06-24T17:04:56;28.40;80.30
42261;DHT22;27926;48.062;7.474;2023-06-24T17:07:21;28.50;79.80
42261;DHT22;27926;48.062;7.474;2023-06-24T17:09:47;28.30;80.50
42261;DHT22;27926;48.062;7.474;2023-06-24T17:12:11;28.30;80.40
42261;DHT22;27926;48.062;7.474;2023-06-24T17:14:36;28.30;80.20
42261;DHT22;27926;48.062;7.474;2023-06-24T17:17:02;28.20;81.10
42261;DHT22;27926;48.062;7.474;2023-06-24T17:19:27;28.10;80.20
42261;DHT22;27926;48.062;7.474;2023-06-24T17:21:51;28.10;80.70
42261;DHT22;27926;48.062;7.474;2023-06-24T17:24:16;28.10;80.70
42261;DHT22;27926;48.062;7.474;2023-06-24T17:26:40;28.50;81.30
42261;DHT22;27926;48.062;7.474;2023-06-24T17:29:05;28.10;81.40
42261;DHT22;27926;48.062;7.474;2023-06-24T17:31:30;28.00;81.90
42261;DHT22;27926;48.062;7.474;2023-06-24T17:33:55;27.90;81.10
42261;DHT22;27926;48.062;7.474;2023-06-24T17:36:22;27.90;81.20
42261;DHT22;27926;48.062;7.474;2023-06-24T17:38:47;28.00;81.80
42261;DHT22;27926;48.062;7.474;2023-06-24T17:41:11;27.70;81.70
42261;DHT22;27926;48.062;7.474;2023-06-24T17:43:36;27.60;81.90
42261;DHT22;27926;48.062;7.474;2023-06-24T17:46:00;27.60;81.80
42261;DHT22;27926;48.062;7.474;2023-06-24T17:48:25;27.60;82.00
42261;DHT22;27926;48.062;7.474;2023-06-24T17:50:50;27.50;82.20
42261;DHT22;27926;48.062;7.474;2023-06-24T17:53:14;27.50;81.50
42261;DHT22;27926;48.062;7.474;2023-06-24T17:55:39;27.50;81.30
42261;DHT22;27926;48.062;7.474;2023-06-24T17:58:04;27.40;81.20
42261;DHT22;27926;48.062;7.474;2023-06-24T18:00:29;27.30;81.20
42261;DHT22;27926;48.062;7.474;2023-06-24T18:02:55;27.30;82.40
42261;DHT22;27926;48.062;7.474;2023-06-24T18:05:20;27.20;82.30
42261;DHT22;27926;48.062;7.474;2023-06-24T18:07:44;27.20;82.50
42261;DHT22;27926;48.062;7.474;2023-06-24T18:10:09;27.10;82.10
42261;DHT22;27926;48.062;7.474;2023-06-24T18:12:34;27.00;81.80
42261;DHT22;27926;48.062;7.474;2023-06-24T18:14:58;27.00;81.50
42261;DHT22;27926;48.062;7.474;2023-06-24T18:17:23;26.90;81.90
42261;DHT22;27926;48.062;7.474;2023-06-24T18:19:48;26.90;83.00
42261;DHT22;27926;48.062;7.474;2023-06-24T18:22:12;26.80;82.50
42261;DHT22;27926;48.062;7.474;2023-06-24T18:24:37;26.70;82.00
42261;DHT22;27926;48.062;7.474;2023-06-24T18:27:02;26.60;82.70
42261;DHT22;27926;48.062;7.474;2023-06-24T18:29:27;26.60;83.00
42261;DHT22;27926;48.062;7.474;2023-06-24T18:31:52;26.50;83.10
42261;DHT22;27926;48.062;7.474;2023-06-24T18:34:16;26.40;83.40
42261;DHT22;27926;48.062;7.474;2023-06-24T18:36:41;26.40;83.70
42261;DHT22;27926;48.062;7.474;2023-06-24T18:39:05;26.30;84.10
42261;DHT22;27926;48.062;7.474;2023-06-24T18:41:31;26.20;84.10
42261;DHT22;27926;48.062;7.474;2023-06-24T18:43:55;26.10;84.50
42261;DHT22;27926;48.062;7.474;2023-06-24T18:46:20;26.00;84.80
42261;DHT22;27926;48.062;7.474;2023-06-24T18:48:45;25.90;85.00
42261;DHT22;27926;48.062;7.474;2023-06-24T18:51:09;25.90;85.30
42261;DHT22;27926;48.062;7.474;2023-06-24T18:53:35;25.80;85.30
42261;DHT22;27926;48.062;7.474;2023-06-24T18:55:59;25.70;85.60
42261;DHT22;27926;48.062;7.474;2023-06-24T18:58:24;25.60;85.90
42261;DHT22;27926;48.062;7.474;2023-06-24T19:00:51;25.50;86.20
42261;DHT22;27926;48.062;7.474;2023-06-24T19:03:17;25.50;86.10
42261;DHT22;27926;48.062;7.474;2023-06-24T19:05:41;25.40;86.50
42261;DHT22;27926;48.062;7.474;2023-06-24T19:08:06;25.30;86.30
42261;DHT22;27926;48.062;7.474;2023-06-24T19:10:31;25.20;86.50
42261;DHT22;27926;48.062;7.474;2023-06-24T19:12:56;25.10;86.70
42261;DHT22;27926;48.062;7.474;2023-06-24T19:15:21;25.00;87.00
42261;DHT22;27926;48.062;7.474;2023-06-24T19:17:46;24.90;87.20
42261;DHT22;27926;48.062;7.474;2023-06-24T19:20:11;24.90;87.90
42261;DHT22;27926;48.062;7.474;2023-06-24T19:22:37;24.70;88.00
42261;DHT22;27926;48.062;7.474;2023-06-24T19:25:02;24.60;88.50
42261;DHT22;27926;48.062;7.474;2023-06-24T19:27:26;24.50;88.60
42261;DHT22;27926;48.062;7.474;2023-06-24T19:29:51;24.40;89.10
42261;DHT22;27926;48.062;7.474;2023-06-24T19:32:15;24.30;89.50
42261;DHT22;27926;48.062;7.474;2023-06-24T19:34:41;24.20;90.00
42261;DHT22;27926;48.062;7.474;2023-06-24T19:37:05;24.00;90.10
42261;DHT22;27926;48.062;7.474;2023-06-24T19:39:30;23.90;90.30
42261;DHT22;27926;48.062;7.474;2023-06-24T19:41:55;23.80;90.50
42261;DHT22;27926;48.062;7.474;2023-06-24T19:44:20;23.70;90.60
42261;DHT22;27926;48.062;7.474;2023-06-24T19:46:44;23.60;90.80
42261;DHT22;27926;48.062;7.474;2023-06-24T19:49:09;23.50;90.90
42261;DHT22;27926;48.062;7.474;2023-06-24T19:51:34;23.40;91.10
42261;DHT22;27926;48.062;7.474;2023-06-24T19:53:59;23.30;91.50
42261;DHT22;27926;48.062;7.474;2023-06-24T19:56:24;23.20;91.30
42261;DHT22;27926;48.062;7.474;2023-06-24T19:58:48;23.10;91.60
42261;DHT22;27926;48.062;7.474;2023-06-24T20:01:13;23.00;91.80
42261;DHT22;27926;48.062;7.474;2023-06-24T20:03:37;23.00;91.90
42261;DHT22;27926;48.062;7.474;2023-06-24T20:06:02;22.90;92.00
42261;DHT22;27926;48.062;7.474;2023-06-24T20:08:27;22.80;92.10
42261;DHT22;27926;48.062;7.474;2023-06-24T20:10:51;22.70;92.30
42261;DHT22;27926;48.062;7.474;2023-06-24T20:13:16;22.70;92.40
42261;DHT22;27926;48.062;7.474;2023-06-24T20:15:41;22.60;92.80